Time;durP1;ratioP1;P1;durP2;ratioP2;P2;SDS_P1;SDS_P2;PMS_P1;PMS_P2;Temp;Humidity;BMP_temperature;BMP_pressure;BME280_temperature;BME280_humidity;BME280_pressure;Samples;Min_cycle;Max_cycle;Signal;HPM_P1;HPM_P2
2024/01/27 00:00:18;;;;;;;14.87;2.07;;;6.40;99.90;;;;;;5053321;28;20302;-91
2024/01/27 00:02:44;;;;;;;17.77;2.37;;;;;;;;;;5034994;28;20321;-92
2024/01/27 00:05:10;;;;;;;17.30;2.50;;;6.20;99.90;;;;;;5035008;28;20181;-90
2024/01/27 00:07:35;;;;;;;17.07;2.53;;;6.30;99.90;;;;;;5034424;28;20192;-92
2024/01/27 00:10:02;;;;;;;15.60;3.10;;;6.20;99.90;;;;;;5033013;28;20182;-92
2024/01/27 00:12:28;;;;;;;15.83;2.10;;;6.10;99.90;;;;;;5046451;28;20270;-93
2024/01/27 00:14:54;;;;;;;22.33;2.27;;;;;;;;;;5053114;28;20641;-93
2024/01/27 00:17:23;;;;;;;19.60;2.40;;;6.50;99.90;;;;;;5053261;28;20212;-90
2024/01/27 00:19:50;;;;;;;19.93;2.30;;;6.10;99.90;;;;;;5052991;28;20643;-92
2024/01/27 00:22:16;;;;;;;10.33;2.10;;;;;;;;;;5055687;28;20262;-91
2024/01/27 00:24:43;;;;;;;16.53;2.13;;;;;;;;;;5042094;28;20208;-91
2024/01/27 00:27:09;;;;;;;11.63;2.23;;;;;;;;;;5053463;28;20219;-92
2024/01/27 00:29:35;;;;;;;20.00;2.30;;;;;;;;;;5053191;28;20179;-93
2024/01/27 00:32:01;;;;;;;17.73;2.53;;;;;;;;;;5052962;28;20176;-93
2024/01/27 00:34:28;;;;;;;12.67;2.20;;;;;;;;;;5053351;28;20264;-94
2024/01/27 00:36:54;;;;;;;24.50;2.70;;;;;;;;;;5052927;28;20631;-93
2024/01/27 00:39:20;;;;;;;19.00;2.00;;;;;;;;;;5062342;28;20172;-95
2024/01/27 00:41:46;;;;;;;13.60;2.63;;;;;;;;;;5068865;28;20186;-92
2024/01/27 00:44:12;;;;;;;12.50;2.20;;;;;;;;;;5058088;28;20237;-91
2024/01/27 00:46:38;;;;;;;19.70;2.90;;;5.80;99.90;;;;;;5073065;28;20628;-92
2024/01/27 00:49:04;;;;;;;17.83;2.80;;;5.90;99.90;;;;;;5057572;28;20176;-90
2024/01/27 00:51:30;;;;;;;17.50;2.40;;;;;;;;;;5057284;28;20231;-92
2024/01/27 00:53:56;;;;;;;20.83;3.73;;;5.90;99.90;;;;;;5036713;28;20664;-91
2024/01/27 00:56:22;;;;;;;17.87;2.83;;;;;;;;;;5033525;28;20249;-92
2024/01/27 00:58:48;;;;;;;17.13;2.67;;;;;;;;;;5034066;28;20224;-91
2024/01/27 01:01:14;;;;;;;13.13;2.40;;;5.40;99.90;;;;;;5035774;28;20217;-90
2024/01/27 01:03:39;;;;;;;17.60;2.27;;;5.40;99.90;;;;;;5052999;28;20311;-92
2024/01/27 01:06:05;;;;;;;16.93;2.83;;;;;;;;;;5053410;28;20204;-93
2024/01/27 01:08:32;;;;;;;13.10;2.53;;;;;;;;;;5035669;28;20185;-93
2024/01/27 01:10:58;;;;;;;17.23;2.27;;;;;;;;;;5057453;28;20256;-94
2024/01/27 01:13:24;;;;;;;20.07;3.37;;;5.50;99.90;;;;;;5057565;28;20212;-95
2024/01/27 01:15:50;;;;;;;17.97;2.23;;;;;;;;;;5040424;28;20280;-90
2024/01/27 01:18:16;;;;;;;16.90;2.30;;;;;;;;;;5057871;28;20646;-92
2024/01/27 01:20:43;;;;;;;17.13;2.23;;;5.60;99.90;;;;;;5072220;28;20156;-92
2024/01/27 01:23:09;;;;;;;13.00;2.40;;;;;;;;;;5079204;28;20176;-90
2024/01/27 01:25:35;;;;;;;11.03;1.90;;;;;;;;;;5073798;28;20173;-90
2024/01/27 01:28:01;;;;;;;13.97;2.50;;;;;;;;;;5054784;28;20223;-88
2024/01/27 01:30:27;;;;;;;13.73;2.30;;;;;;;;;;5066490;28;20182;-88
2024/01/27 01:32:53;;;;;;;20.53;2.30;;;;;;;;;;5081568;28;20205;-87
2024/01/27 01:35:19;;;;;;;17.03;2.67;;;;;;;;;;5254882;22;20236;-87
2024/01/27 01:37:45;;;;;;;11.63;1.90;;;5.70;99.90;;;;;;5078454;28;20157;-90
2024/01/27 01:40:12;;;;;;;15.43;2.47;;;;;;;;;;5079746;28;20762;-89
2024/01/27 01:42:38;;;;;;;14.97;2.37;;;;;;;;;;5077388;28;20216;-91
2024/01/27 01:45:05;;;;;;;17.93;2.30;;;3.70;99.90;;;;;;5069792;28;20188;-93
2024/01/27 01:47:31;;;;;;;14.93;2.53;;;;;;;;;;5078315;28;20192;-91
2024/01/27 01:49:57;;;;;;;14.47;2.30;;;;;;;;;;5063156;28;20158;-89
2024/01/27 01:52:24;;;;;;;10.50;2.07;;;5.70;99.90;;;;;;5078948;28;20216;-89
2024/01/27 01:54:50;;;;;;;13.53;2.20;;;5.60;99.90;;;;;;5078659;28;20192;-84
2024/01/27 01:57:17;;;;;;;17.07;2.50;;;5.60;99.90;;;;;;5076984;28;20177;-88
2024/01/27 01:59:43;;;;;;;18.10;2.70;;;;;;;;;;5066036;28;20803;-87
2024/01/27 02:02:09;;;;;;;12.57;1.93;;;5.80;99.90;;;;;;5061360;28;20173;-88
2024/01/27 02:04:47;;;;;;;17.07;2.70;;;5.80;99.90;;;;;;5055826;28;20176;-89
2024/01/27 02:07:14;;;;;;;21.53;2.43;;;5.40;99.90;;;;;;5058724;28;20250;-88
2024/01/27 02:09:39;;;;;;;15.43;2.00;;;5.80;99.90;;;;;;5042524;28;20196;-88
2024/01/27 02:12:06;;;;;;;17.63;2.43;;;5.60;99.90;;;;;;5043070;28;20173;-88
2024/01/27 02:14:31;;;;;;;14.33;2.30;;;5.90;99.90;;;;;;5043395;28;20208;-88
2024/01/27 02:16:57;;;;;;;22.77;2.27;;;5.70;99.90;;;;;;5056416;28;20178;-88
2024/01/27 02:19:24;;;;;;;15.03;2.27;;;;;;;;;;5037930;28;20186;-89
2024/01/27 02:21:50;;;;;;;11.77;2.00;;;;;;;;;;5016390;28;20269;-90
2024/01/27 02:24:15;;;;;;;16.93;2.20;;;5.60;99.90;;;;;;5042308;28;20178;-87
2024/01/27 02:26:41;;;;;;;15.33;2.13;;;5.60;99.90;;;;;;5044751;28;20177;-91
2024/01/27 02:29:08;;;;;;;22.67;2.40;;;5.40;99.90;;;;;;5035566;28;20186;-90
2024/01/27 02:31:34;;;;;;;22.27;2.67;;;;;;;;;;5042866;28;20182;-92
2024/01/27 02:33:59;;;;;;;14.57;2.27;;;5.90;99.90;;;;;;5045189;28;20241;-90
2024/01/27 02:36:25;;;;;;;10.43;1.83;;;;;;;;;;5008685;28;20174;-92
2024/01/27 02:38:51;;;;;;;19.87;2.57;;;5.80;99.90;;;;;;5044379;28;20181;-91
2024/01/27 02:41:17;;;;;;;12.07;1.87;;;5.80;99.90;;;;;;5037377;28;20170;-89
2024/01/27 02:43:42;;;;;;;14.67;2.03;;;5.60;99.90;;;;;;5035498;28;20671;-90
2024/01/27 02:46:11;;;;;;;10.47;1.43;;;5.60;99.90;;;;;;5035145;28;20166;-88
2024/01/27 02:48:40;;;;;;;20.43;2.43;;;5.60;99.90;;;;;;5017828;28;20182;-92
2024/01/27 02:51:05;;;;;;;20.30;2.13;;;5.70;99.90;;;;;;5025609;28;20301;-92
2024/01/27 02:53:31;;;;;;;13.47;2.00;;;;;;;;;;5032686;28;20225;-90
2024/01/27 02:55:57;;;;;;;10.93;2.20;;;5.50;99.90;;;;;;5048498;28;20174;-91
2024/01/27 02:58:23;;;;;;;18.90;3.00;;;5.50;99.90;;;;;;5038422;28;20193;-92
2024/01/27 03:00:49;;;;;;;14.20;2.23;;;5.50;99.90;;;;;;5028020;28;20171;-90
2024/01/27 03:03:16;;;;;;;11.00;2.03;;;5.60;99.90;;;;;;5039493;28;20242;-90
2024/01/27 03:05:41;;;;;;;9.67;1.80;;;5.60;99.90;;;;;;5315718;22;20255;-90
2024/01/27 03:08:07;;;;;;;14.07;2.40;;;5.70;99.90;;;;;;5050672;28;20189;-90
2024/01/27 03:10:34;;;;;;;15.93;2.07;;;5.60;99.90;;;;;;5051764;28;20181;-90
2024/01/27 03:13:00;;;;;;;18.83;2.13;;;;;;;;;;5532622;22;20228;-90
2024/01/27 03:15:26;;;;;;;11.70;1.70;;;;;;;;;;5055210;28;20662;-91
2024/01/27 03:17:52;;;;;;;8.57;1.87;;;5.70;99.90;;;;;;5046285;28;20182;-92
2024/01/27 03:20:18;;;;;;;20.43;2.40;;;;;;;;;;5052526;28;20194;-91
2024/01/27 03:22:43;;;;;;;9.03;2.00;;;5.30;99.90;;;;;;5041261;28;20185;-93
2024/01/27 03:25:13;;;;;;;13.77;2.27;;;5.70;99.90;;;;;;5565778;22;20227;-89
2024/01/27 03:27:39;;;;;;;10.13;2.17;;;5.60;99.90;;;;;;5076987;28;20194;-91
2024/01/27 03:30:07;;;;;;;20.93;2.73;;;5.30;99.90;;;;;;5060292;28;20165;-90
2024/01/27 03:32:34;;;;;;;15.20;2.37;;;;;;;;;;5075192;28;20247;-92
2024/01/27 03:35:00;;;;;;;13.53;2.43;;;5.50;99.90;;;;;;5062716;28;20186;-92
2024/01/27 03:37:26;;;;;;;17.33;2.43;;;5.50;99.90;;;;;;5050378;28;20196;-93
2024/01/27 03:39:52;;;;;;;14.13;2.23;;;5.50;99.90;;;;;;5055744;28;20181;-93
2024/01/27 03:42:18;;;;;;;12.17;2.10;;;5.10;99.90;;;;;;5059673;28;20200;-91
2024/01/27 03:44:43;;;;;;;19.13;1.87;;;5.70;99.90;;;;;;5058015;28;20200;-90
2024/01/27 03:47:10;;;;;;;22.90;3.03;;;;;;;;;;5050939;28;20161;-92
2024/01/27 03:49:36;;;;;;;22.30;2.53;;;5.40;99.90;;;;;;5227793;23;20240;-92
2024/01/27 03:52:02;;;;;;;16.70;2.20;;;;;;;;;;5060442;28;20178;-92
2024/01/27 03:54:28;;;;;;;18.03;2.33;;;5.60;99.90;;;;;;5057181;28;20226;-94
2024/01/27 03:56:54;;;;;;;9.43;2.10;;;5.40;99.90;;;;;;5045426;28;20165;-91
2024/01/27 03:59:20;;;;;;;19.07;2.20;;;5.10;99.90;;;;;;5056688;22;20233;-92
2024/01/27 04:01:46;;;;;;;15.00;2.03;;;;;;;;;;5032264;28;20530;-88
2024/01/27 04:04:12;;;;;;;15.17;2.33;;;;;;;;;;5033869;28;20174;-88
2024/01/27 04:06:40;;;;;;;9.37;1.40;;;5.30;99.90;;;;;;5044822;28;20184;-88
2024/01/27 04:09:09;;;;;;;14.30;2.40;;;5.30;99.90;;;;;;5016707;28;20185;-88
2024/01/27 04:11:36;;;;;;;17.03;2.07;;;5.40;99.90;;;;;;5031776;28;20198;-88
2024/01/27 04:14:02;;;;;;;19.17;2.07;;;;;;;;;;5032883;28;20213;-88
2024/01/27 04:16:28;;;;;;;20.37;2.17;;;5.60;99.90;;;;;;5043516;28;20201;-88
2024/01/27 04:18:55;;;;;;;12.47;2.27;;;5.70;99.90;;;;;;5049927;28;20593;-89
2024/01/27 04:21:21;;;;;;;16.33;2.43;;;;;;;;;;5053493;28;20192;-89
2024/01/27 04:23:47;;;;;;;11.70;1.73;;;;;;;;;;5047203;28;20206;-90
2024/01/27 04:26:13;;;;;;;9.73;1.73;;;5.30;99.90;;;;;;5038470;28;20359;-91
2024/01/27 04:28:39;;;;;;;16.77;1.77;;;5.50;99.90;;;;;;5035829;28;20162;-88
2024/01/27 04:31:05;;;;;;;16.80;1.90;;;5.50;99.90;;;;;;5925113;23;20200;-86
2024/01/27 04:33:31;;;;;;;13.87;2.07;;;;;;;;;;5487386;22;20204;-90
2024/01/27 04:35:57;;;;;;;16.87;2.47;;;;;;;;;;5067488;28;20177;-91
2024/01/27 04:38:22;;;;;;;12.37;2.20;;;5.50;99.90;;;;;;5038011;28;20223;-91
2024/01/27 04:40:50;;;;;;;17.43;2.13;;;;;;;;;;5052936;28;20185;-93
2024/01/27 04:43:16;;;;;;;19.00;2.13;;;5.30;99.90;;;;;;5052977;28;20177;-92
2024/01/27 04:45:42;;;;;;;13.60;2.10;;;5.10;99.90;;;;;;5053721;28;20166;-92
2024/01/27 04:48:08;;;;;;;13.50;2.10;;;;;;;;;;5053383;28;20602;-92
2024/01/27 04:50:34;;;;;;;10.03;2.10;;;;;;;;;;5043968;28;20655;-92
2024/01/27 04:53:00;;;;;;;15.33;2.43;;;5.00;99.90;;;;;;5053121;28;20244;-93
2024/01/27 04:55:27;;;;;;;12.00;2.13;;;;;;;;;;5053682;28;20192;-94
2024/01/27 04:57:53;;;;;;;13.23;2.07;;;;;;;;;;5053638;28;20193;-94
2024/01/27 05:00:19;;;;;;;13.47;2.00;;;;;;;;;;5053867;28;20165;-94
2024/01/27 05:02:45;;;;;;;9.83;1.47;;;4.90;99.90;;;;;;5052932;28;20177;-92
2024/01/27 05:05:11;;;;;;;16.20;2.37;;;5.10;99.90;;;;;;5023032;28;20182;-94
2024/01/27 05:07:38;;;;;;;10.43;2.17;;;;;;;;;;5033848;28;20265;-94
2024/01/27 05:10:04;;;;;;;13.63;1.90;;;5.10;99.90;;;;;;5033867;28;20174;-91
2024/01/27 05:12:30;;;;;;;13.27;2.30;;;;;;;;;;5054303;28;20269;-91
2024/01/27 05:14:57;;;;;;;12.73;2.70;;;;;;;;;;5055693;28;20185;-91
2024/01/27 05:17:23;;;;;;;12.50;2.07;;;5.30;99.90;;;;;;5054882;28;20218;-94
2024/01/27 05:19:50;;;;;;;9.63;1.70;;;5.50;99.90;;;;;;5034053;28;20193;-91
2024/01/27 05:22:16;;;;;;;14.73;1.93;;;;;;;;;;5058651;28;20248;-91
2024/01/27 05:24:44;;;;;;;15.90;2.00;;;5.50;99.90;;;;;;5075079;28;20153;-90
2024/01/27 05:27:09;;;;;;;11.20;1.70;;;5.30;99.90;;;;;;5076558;28;20177;-92
2024/01/27 05:29:39;;;;;;;11.53;1.93;;;5.20;99.90;;;;;;5074007;28;20207;-93
2024/01/27 05:32:05;;;;;;;12.07;2.50;;;5.00;99.90;;;;;;5070724;28;20198;-93
2024/01/27 05:34:31;;;;;;;22.90;2.40;;;;;;;;;;5073731;28;20213;-94
2024/01/27 05:36:57;;;;;;;14.30;2.20;;;;;;;;;;5072489;28;20219;-94
2024/01/27 05:39:23;;;;;;;11.77;2.23;;;;;;;;;;5074065;28;20174;-91
2024/01/27 05:41:50;;;;;;;11.97;1.90;;;5.30;99.90;;;;;;5070780;28;20262;-87
2024/01/27 05:44:16;;;;;;;17.43;2.00;;;;;;;;;;5072293;28;20185;-89
2024/01/27 05:46:42;;;;;;;15.13;2.10;;;;;;;;;;5069364;28;20177;-89
2024/01/27 05:49:08;;;;;;;24.70;2.43;;;;;;;;;;5072208;28;20225;-84
2024/01/27 05:51:35;;;;;;;13.70;2.60;;;4.80;99.90;;;;;;5071890;28;20189;-88
2024/01/27 05:54:02;;;;;;;13.97;1.97;;;4.90;99.90;;;;;;5057440;28;20243;-88
2024/01/27 05:56:28;;;;;;;10.53;1.60;;;4.90;99.90;;;;;;5055406;28;20292;-88
2024/01/27 05:58:55;;;;;;;15.27;2.27;;;4.90;99.90;;;;;;5055380;28;20209;-92
2024/01/27 06:01:21;;;;;;;14.50;2.40;;;;;;;;;;5064466;28;20201;-90
2024/01/27 06:03:47;;;;;;;21.30;2.10;;;;;;;;;;5079926;28;20200;-90
2024/01/27 06:06:13;;;;;;;13.43;2.00;;;;;;;;;;5067926;28;20233;-91
2024/01/27 06:08:39;;;;;;;11.83;2.27;;;;;;;;;;5060782;28;20164;-91
2024/01/27 06:11:05;;;;;;;15.03;2.63;;;;;;;;;;5060435;28;20170;-91
2024/01/27 06:13:35;;;;;;;12.57;2.20;;;;;;;;;;5054752;28;20240;-90
2024/01/27 06:16:01;;;;;;;13.00;1.93;;;;;;;;;;5039724;28;20269;-93
2024/01/27 06:18:26;;;;;;;16.43;1.93;;;5.00;99.90;;;;;;5038623;28;20170;-92
2024/01/27 06:20:52;;;;;;;8.60;1.80;;;4.90;99.90;;;;;;5044297;28;20181;-93
2024/01/27 06:23:18;;;;;;;13.33;2.33;;;5.10;99.90;;;;;;5038523;28;20188;-91
2024/01/27 06:25:44;;;;;;;14.63;2.37;;;4.80;99.90;;;;;;5038153;28;20549;-91
2024/01/27 06:28:12;;;;;;;13.07;2.10;;;;;;;;;;5055436;28;20648;-92
2024/01/27 06:30:37;;;;;;;15.90;2.73;;;5.10;99.90;;;;;;5055058;28;20196;-91
2024/01/27 06:33:03;;;;;;;13.83;2.60;;;4.80;99.90;;;;;;5054820;28;20256;-89
2024/01/27 06:35:29;;;;;;;15.80;2.70;;;;;;;;;;5046041;28;20170;-90
2024/01/27 06:37:55;;;;;;;17.73;2.93;;;4.80;99.90;;;;;;5035562;28;20771;-90
2024/01/27 06:40:20;;;;;;;12.70;2.57;;;4.90;99.90;;;;;;5050141;28;20182;-90
2024/01/27 06:42:47;;;;;;;11.80;2.40;;;4.60;99.90;;;;;;5055304;28;20259;-90
2024/01/27 06:45:13;;;;;;;15.80;2.63;;;4.80;99.90;;;;;;5038030;28;20173;-92
2024/01/27 06:47:38;;;;;;;12.90;2.63;;;4.80;99.90;;;;;;5020954;28;20181;-92
2024/01/27 06:50:06;;;;;;;19.47;3.00;;;;;;;;;;5052915;28;20255;-88
2024/01/27 06:52:32;;;;;;;12.50;2.10;;;;;;;;;;5047222;28;20702;-84
2024/01/27 06:54:58;;;;;;;14.07;2.20;;;;;;;;;;5054902;28;20180;-92
2024/01/27 06:57:24;;;;;;;13.80;2.13;;;4.80;99.90;;;;;;5058457;28;20572;-90
2024/01/27 06:59:55;;;;;;;16.93;2.60;;;4.80;99.90;;;;;;5055181;28;20192;-93
2024/01/27 07:02:28;;;;;;;15.30;2.10;;;4.80;99.90;;;;;;5037114;28;20185;-92
2024/01/27 07:04:54;;;;;;;14.07;1.93;;;;;;;;;;5055251;28;20258;-93
2024/01/27 07:07:25;;;;;;;11.17;2.40;;;4.60;99.90;;;;;;5054623;28;20185;-92
2024/01/27 07:09:52;;;;;;;14.30;2.60;;;;;;;;;;5054680;28;20181;-92
2024/01/27 07:12:18;;;;;;;11.80;2.33;;;;;;;;;;5055335;28;20179;-89
2024/01/27 07:14:44;;;;;;;16.10;2.43;;;;;;;;;;5049608;28;20185;-89
2024/01/27 07:17:10;;;;;;;12.07;2.37;;;;;;;;;;5052111;28;20175;-89
2024/01/27 07:19:36;;;;;;;16.30;2.50;;;;;;;;;;5067171;28;20281;-90
2024/01/27 07:22:03;;;;;;;12.20;1.90;;;;;;;;;;5057241;28;20181;-89
2024/01/27 07:24:29;;;;;;;11.90;2.17;;;;;;;;;;5054959;28;20185;-89
2024/01/27 07:26:55;;;;;;;10.17;2.07;;;;;;;;;;5046633;28;20208;-91
2024/01/27 07:29:22;;;;;;;11.83;2.10;;;;;;;;;;5043679;28;20173;-85
2024/01/27 07:31:50;;;;;;;12.00;2.17;;;4.60;99.90;;;;;;5043050;28;20178;-89
2024/01/27 07:34:16;;;;;;;19.53;2.70;;;;;;;;;;5054391;28;20268;-88
2024/01/27 07:36:42;;;;;;;19.67;2.70;;;;;;;;;;5031892;28;20546;-90
2024/01/27 07:39:08;;;;;;;11.93;2.63;;;;;;;;;;5068624;28;20220;-84
2024/01/27 07:41:34;;;;;;;10.20;1.93;;;4.80;99.90;;;;;;5058888;28;20166;-87
2024/01/27 07:46:44;;;;;;;11.90;2.67;;;;;;;;;;5122664;22;20229;-91
2024/01/27 07:49:12;;;;;;;9.67;2.07;;;;;;;;;;5057002;28;20173;-92
2024/01/27 07:51:38;;;;;;;12.73;2.40;;;4.90;99.90;;;;;;5054645;28;20200;-89
2024/01/27 07:54:04;;;;;;;14.33;3.23;;;;;;;;;;5034483;28;20725;-85
2024/01/27 07:56:31;;;;;;;10.87;2.93;;;4.80;99.90;;;;;;5051837;28;20181;-89
2024/01/27 07:58:57;;;;;;;16.87;3.40;;;;;;;;;;5050978;28;20185;-88
2024/01/27 08:01:23;;;;;;;13.67;2.77;;;4.50;99.90;;;;;;5052885;28;20235;-89
2024/01/27 08:03:49;;;;;;;11.53;3.00;;;4.30;99.90;;;;;;5052605;28;20188;-85
2024/01/27 08:06:17;;;;;;;8.70;2.57;;;4.80;99.90;;;;;;5017951;28;20183;-84
2024/01/27 08:08:49;;;;;;;11.63;2.50;;;4.70;99.90;;;;;;5047102;28;20181;-87
2024/01/27 08:11:15;;;;;;;17.70;3.20;;;4.80;99.90;;;;;;5043106;28;20192;-87
2024/01/27 08:13:41;;;;;;;8.90;2.30;;;5.00;99.90;;;;;;5038930;28;20216;-90
2024/01/27 08:16:09;;;;;;;10.50;2.80;;;;;;;;;;5044278;28;20266;-90
2024/01/27 08:18:36;;;;;;;10.00;3.20;;;5.00;99.90;;;;;;5051560;28;20173;-88
2024/01/27 08:21:03;;;;;;;11.30;3.17;;;5.00;99.90;;;;;;5052183;28;20268;-82
2024/01/27 08:23:29;;;;;;;11.43;3.00;;;;;;;;;;5034783;28;20173;-88
2024/01/27 08:25:55;;;;;;;14.63;3.37;;;;;;;;;;5043071;28;20662;-87
2024/01/27 08:28:21;;;;;;;11.97;2.87;;;;;;;;;;5051660;28;20230;-87
2024/01/27 08:30:47;;;;;;;14.00;3.30;;;;;;;;;;5035152;28;20724;-87
2024/01/27 08:33:13;;;;;;;15.47;3.30;;;5.30;99.90;;;;;;5050617;28;20316;-84
2024/01/27 08:35:39;;;;;;;7.87;2.60;;;;;;;;;;5051691;28;20172;-83
2024/01/27 08:38:06;;;;;;;18.80;3.20;;;5.20;99.90;;;;;;5052135;28;20176;-85
2024/01/27 08:40:32;;;;;;;14.13;3.30;;;;;;;;;;5052341;28;20529;-86
2024/01/27 08:42:58;;;;;;;15.87;3.00;;;;;;;;;;5062349;28;20191;-87
2024/01/27 08:45:25;;;;;;;6.63;2.87;;;;;;;;;;5026263;28;20218;-87
2024/01/27 08:47:51;;;;;;;12.37;2.63;;;5.40;99.90;;;;;;5039016;28;20166;-83
2024/01/27 08:50:17;;;;;;;12.57;2.50;;;;;;;;;;5047829;28;20243;-85
2024/01/27 08:52:42;;;;;;;8.30;2.23;;;5.70;99.90;;;;;;5050944;28;20196;-84
2024/01/27 08:55:09;;;;;;;23.77;3.00;;;;;;;;;;5032105;28;20639;-84
2024/01/27 08:57:34;;;;;;;12.77;2.27;;;5.80;99.90;;;;;;5044752;28;20182;-83
2024/01/27 09:00:00;;;;;;;12.77;2.43;;;5.60;99.90;;;;;;5041608;28;20179;-83
2024/01/27 09:02:26;;;;;;;11.90;2.53;;;6.00;99.90;;;;;;5040000;28;20590;-84
2024/01/27 09:04:51;;;;;;;9.17;1.97;;;5.70;99.90;;;;;;5040356;28;20209;-81
2024/01/27 09:07:17;;;;;;;13.57;2.60;;;;;;;;;;5027771;28;20657;-85
2024/01/27 09:09:43;;;;;;;21.23;2.83;;;6.10;99.90;;;;;;5051887;28;20185;-82
2024/01/27 09:12:09;;;;;;;13.93;2.27;;;6.10;99.90;;;;;;5048581;28;20173;-87
2024/01/27 09:14:34;;;;;;;14.37;2.87;;;5.90;99.90;;;;;;5026990;28;20928;-87
2024/01/27 09:17:01;;;;;;;10.03;2.47;;;5.90;99.90;;;;;;5061794;28;20185;-86
2024/01/27 09:19:28;;;;;;;16.23;2.60;;;;;;;;;;5067475;28;20173;-87
2024/01/27 09:21:54;;;;;;;12.63;2.63;;;;;;;;;;5071801;28;20185;-85
2024/01/27 09:24:20;;;;;;;12.40;2.93;;;;;;;;;;5032676;28;20542;-83
2024/01/27 09:26:45;;;;;;;17.93;3.03;;;6.00;99.90;;;;;;5050775;28;20597;-85
2024/01/27 09:29:12;;;;;;;11.03;2.43;;;;;;;;;;5050324;28;20252;-83
2024/01/27 09:31:38;;;;;;;15.43;2.60;;;;;;;;;;5053133;28;20662;-83
2024/01/27 09:34:04;;;;;;;13.27;2.60;;;6.00;99.90;;;;;;5049085;28;20702;-84
2024/01/27 09:36:29;;;;;;;12.07;2.80;;;6.30;99.90;;;;;;5054328;28;20169;-82
2024/01/27 09:38:55;;;;;;;11.07;2.80;;;;;;;;;;5053904;28;20187;-83
2024/01/27 09:41:21;;;;;;;12.03;3.53;;;6.00;99.90;;;;;;5038481;28;20238;-82
2024/01/27 09:43:47;;;;;;;12.33;2.83;;;6.30;99.90;;;;;;5055114;28;20189;-82
2024/01/27 09:46:16;;;;;;;15.47;2.70;;;6.60;99.90;;;;;;5054410;28;20361;-84
2024/01/27 09:48:43;;;;;;;16.17;3.43;;;6.70;99.90;;;;;;5054380;28;20187;-82
2024/01/27 09:51:09;;;;;;;13.43;2.80;;;6.50;99.90;;;;;;5036153;28;20216;-84
2024/01/27 09:53:36;;;;;;;19.80;3.17;;;6.90;99.90;;;;;;5053011;28;20224;-76
2024/01/27 09:56:03;;;;;;;15.07;3.10;;;7.10;99.90;;;;;;5035106;28;20227;-80
2024/01/27 09:58:30;;;;;;;14.03;2.97;;;7.20;99.90;;;;;;5034381;28;20178;-81
2024/01/27 10:00:57;;;;;;;13.37;3.07;;;9.30;99.90;;;;;;5034359;28;20182;-81
2024/01/27 10:03:25;;;;;;;16.97;2.90;;;7.10;99.90;;;;;;5034226;28;20174;-82
2024/01/27 10:05:56;;;;;;;21.27;3.23;;;7.20;99.90;;;;;;5020142;28;20260;-81
2024/01/27 10:08:23;;;;;;;21.27;3.67;;;8.10;99.90;;;;;;5053710;28;20188;-81
2024/01/27 10:10:57;;;;;;;12.13;3.20;;;7.60;99.90;;;;;;5052471;28;20188;-81
2024/01/27 10:13:26;;;;;;;16.47;3.33;;;7.50;99.90;;;;;;5035637;28;20209;-81
2024/01/27 10:16:05;;;;;;;21.63;3.50;;;7.50;99.90;;;;;;5044414;28;20513;-80
2024/01/27 10:18:31;;;;;;;27.10;3.37;;;7.50;99.90;;;;;;5025482;28;20530;-78
2024/01/27 10:20:57;;;;;;;15.77;3.30;;;;;;;;;;5047252;28;20181;-78
2024/01/27 10:23:24;;;;;;;12.93;2.63;;;;;;;;;;5031238;28;20181;-79
2024/01/27 10:25:50;;;;;;;16.37;3.20;;;7.60;99.90;;;;;;5046557;28;20226;-78
2024/01/27 10:28:17;;;;;;;16.07;3.13;;;7.70;99.90;;;;;;5053099;28;20185;-77
2024/01/27 10:30:43;;;;;;;16.67;3.00;;;7.80;99.90;;;;;;5025189;28;20180;-77
2024/01/27 10:33:15;;;;;;;13.50;2.87;;;7.90;99.90;;;;;;5046575;28;20213;-77
2024/01/27 10:35:44;;;;;;;18.50;3.07;;;7.70;99.90;;;;;;5035640;28;20340;-79
2024/01/27 10:38:10;;;;;;;22.03;3.33;;;;;;;;;;5041515;28;20177;-77
2024/01/27 10:40:37;;;;;;;19.87;3.20;;;;;;;;;;5053021;28;20183;-78
2024/01/27 10:43:12;;;;;;;15.20;3.50;;;7.90;99.90;;;;;;5052076;28;20642;-81
2024/01/27 10:45:41;;;;;;;15.33;3.00;;;8.00;99.90;;;;;;5052532;28;20246;-76
2024/01/27 10:48:10;;;;;;;12.33;2.90;;;8.10;99.90;;;;;;5034592;28;20162;-77
2024/01/27 10:50:38;;;;;;;12.33;3.00;;;8.30;99.90;;;;;;5052224;28;20169;-78
2024/01/27 10:53:05;;;;;;;15.50;3.13;;;4.20;99.90;;;;;;5038014;28;20213;-78
2024/01/27 10:55:35;;;;;;;15.67;3.43;;;8.30;99.90;;;;;;5044335;28;20265;-78
2024/01/27 10:58:02;;;;;;;13.50;2.90;;;8.50;99.90;;;;;;5047957;28;20189;-78
2024/01/27 11:00:28;;;;;;;20.23;3.27;;;8.70;99.90;;;;;;5034434;28;20192;-79
2024/01/27 11:02:58;;;;;;;17.43;3.27;;;8.60;99.90;;;;;;5048698;28;20184;-79
2024/01/27 11:05:26;;;;;;;21.93;3.07;;;8.70;99.90;;;;;;5052523;28;20238;-81
2024/01/27 11:07:53;;;;;;;25.93;3.27;;;8.70;99.90;;;;;;5052042;28;20196;-80
2024/01/27 11:10:18;;;;;;;16.13;3.47;;;9.10;99.90;;;;;;5051699;28;20188;-81
2024/01/27 11:12:47;;;;;;;15.93;3.37;;;9.30;99.90;;;;;;5051810;28;20205;-78
2024/01/27 11:15:13;;;;;;;16.83;3.10;;;8.90;99.90;;;;;;5052802;28;20731;-82
2024/01/27 11:17:41;;;;;;;15.20;3.40;;;9.10;99.90;;;;;;5051013;28;20186;-84
2024/01/27 11:20:08;;;;;;;17.47;4.03;;;9.60;99.90;;;;;;5050039;28;20226;-80
2024/01/27 11:22:34;;;;;;;16.30;4.13;;;9.60;99.90;;;;;;5052396;28;20169;-82
2024/01/27 11:25:13;;;;;;;17.30;3.53;;;9.40;99.90;;;;;;5034922;28;20215;-84
2024/01/27 11:27:40;;;;;;;17.90;3.87;;;9.40;99.90;;;;;;5050597;28;20180;-86
2024/01/27 11:30:27;;;;;;;15.37;3.60;;;9.70;99.90;;;;;;5040726;28;20264;-85
2024/01/27 11:32:55;;;;;;;16.80;3.40;;;9.60;99.90;;;;;;5050338;28;20196;-85
2024/01/27 11:35:21;;;;;;;21.40;3.90;;;;;;;;;;5050782;28;20178;-84
2024/01/27 11:37:48;;;;;;;14.23;3.43;;;9.90;99.90;;;;;;5052083;28;20173;-84
2024/01/27 11:40:15;;;;;;;17.17;2.93;;;9.90;99.90;;;;;;5034071;28;20192;-84
2024/01/27 11:42:41;;;;;;;15.37;2.80;;;;;;;;;;5052233;28;20212;-84
2024/01/27 11:45:09;;;;;;;25.00;3.83;;;10.00;99.90;;;;;;5034366;28;20217;-84
2024/01/27 11:47:35;;;;;;;12.97;3.17;;;10.00;99.90;;;;;;5034689;28;20650;-83
2024/01/27 11:50:01;;;;;;;15.40;3.00;;;;;;;;;;5052675;28;20169;-84
2024/01/27 11:52:28;;;;;;;12.37;2.30;;;9.80;99.90;;;;;;5054052;28;20169;-84
2024/01/27 11:54:58;;;;;;;10.37;2.03;;;9.90;99.90;;;;;;5066107;28;20165;-83
2024/01/27 11:57:24;;;;;;;9.50;1.40;;;9.70;99.90;;;;;;5075203;28;20197;-86
2024/01/27 11:59:51;;;;;;;7.07;1.50;;;9.70;99.90;;;;;;5041988;28;20202;-88
2024/01/27 12:02:17;;;;;;;10.53;1.80;;;9.50;99.90;;;;;;5053063;28;20193;-87
2024/01/27 12:04:43;;;;;;;12.70;2.03;;;;;;;;;;5052506;28;20255;-87
2024/01/27 12:07:09;;;;;;;10.10;1.40;;;9.50;99.90;;;;;;5052793;28;20228;-87
2024/01/27 12:09:36;;;;;;;13.57;2.10;;;9.50;99.90;;;;;;5052435;28;20774;-87
2024/01/27 12:12:03;;;;;;;13.83;1.63;;;9.50;99.90;;;;;;5052129;28;20173;-88
2024/01/27 12:14:45;;;;;;;9.00;1.60;;;9.50;99.90;;;;;;5053338;28;20822;-87
2024/01/27 12:17:11;;;;;;;12.80;2.47;;;;;;;;;;5052135;28;20181;-87
2024/01/27 12:19:38;;;;;;;10.00;1.47;;;9.60;99.90;;;;;;5051956;28;20192;-87
2024/01/27 12:22:04;;;;;;;10.50;1.67;;;;;;;;;;5032047;28;20178;-87
2024/01/27 12:24:32;;;;;;;10.27;1.57;;;9.70;99.90;;;;;;5030932;28;20256;-89
2024/01/27 12:26:58;;;;;;;12.40;1.77;;;;;;;;;;5032222;28;20196;-85
2024/01/27 12:29:24;;;;;;;11.03;2.03;;;11.50;70.90;;;;;;5031854;28;20670;-86
2024/01/27 12:31:50;;;;;;;18.80;1.90;;;;;;;;;;5031727;28;20197;-86
2024/01/27 12:34:16;;;;;;;11.67;1.63;;;12.00;1.00;;;;;;5031742;28;20240;-85
2024/01/27 12:36:42;;;;;;;10.80;2.07;;;11.60;99.90;;;;;;5031491;28;20181;-82
2024/01/27 12:39:09;;;;;;;11.73;1.83;;;10.80;1.00;;;;;;5031701;28;20549;-82
2024/01/27 12:41:35;;;;;;;12.90;2.03;;;10.90;1.00;;;;;;5031736;28;20178;-86
2024/01/27 12:44:01;;;;;;;10.33;1.60;;;;;;;;;;5031551;28;20185;-86
2024/01/27 12:46:27;;;;;;;19.53;2.20;;;10.60;1.00;;;;;;5031195;28;20221;-86
2024/01/27 12:48:53;;;;;;;10.90;2.03;;;10.50;1.00;;;;;;5031415;28;20211;-87
2024/01/27 12:51:19;;;;;;;12.03;1.90;;;10.90;1.00;;;;;;5031533;28;20209;-86
2024/01/27 12:53:45;;;;;;;8.57;1.57;;;;;;;;;;5031111;28;20213;-85
2024/01/27 12:56:12;;;;;;;13.20;2.40;;;12.50;99.90;;;;;;5031114;28;20173;-84
2024/01/27 12:58:38;;;;;;;16.20;2.43;;;12.80;1.00;;;;;;5031407;28;20184;-82
2024/01/27 13:01:05;;;;;;;8.70;1.50;;;11.80;1.00;;;;;;5032190;28;20177;-87
2024/01/27 13:03:31;;;;;;;15.53;1.87;;;;;;;;;;5051459;28;20176;-86
2024/01/27 13:05:57;;;;;;;14.17;1.60;;;13.00;1.00;;;;;;5050522;28;20686;-80
2024/01/27 13:08:23;;;;;;;10.80;1.97;;;;;;;;;;5050803;28;20251;-80
2024/01/27 13:10:50;;;;;;;12.43;2.53;;;13.20;99.90;;;;;;5050498;28;20659;-82
2024/01/27 13:13:16;;;;;;;8.57;1.87;;;13.00;1.00;;;;;;5050823;28;20216;-79
2024/01/27 13:15:43;;;;;;;9.10;1.98;;;;;;;;;;5050724;28;20177;-78
2024/01/27 13:18:10;;;;;;;17.50;2.57;;;12.90;1.00;;;;;;5032961;28;20173;-79
2024/01/27 13:20:36;;;;;;;18.07;2.37;;;;;;;;;;5050751;28;20173;-77
2024/01/27 13:23:02;;;;;;;13.00;2.15;;;13.20;1.00;;;;;;5050607;28;20197;-76